Aeroporto :
LOGIN :

Iscrizione | Disclaimer

   EN    FR    IT 

 










Sommario :    VFR   VFR Marginale   IFR   IFR Intensivo   IFR Molto Intensivo
Visibilità : 
Base nubi : 
>= 8 km
>= 3000ft
5 / 8 km
1000 / 3000 ft
1500m / 5 km
500 / 1000 ft
800 / 1500m
200 / 500 ft
< 800m
< 200 ft
Simboli :   Temporali  Nebbia  Neve Forte  Precipitazioni Forti  Vento > 20 kt
SIGMETs :   Varie  Temporali  Ghiacco  Turbolenza  Onda orograficha  Ceneri Vulcaniche






- Altitudine del aeroporto : 3 ft
- Codice IATA : LWR


EHLW - Leuuwarden Air Base

ULTIMO METAR :
  • 020325Z AUTO 08006KT 360V130 6000 BR OVC066 02/01 Q1027 WHT

METARs OBSOLETI :
  • 020255Z AUTO 06006KT 360V110 5000 BR OVC065 02/01 Q1027 WHT
  • 020225Z AUTO 06006KT 360V120 6000 BR BKN063 OVC069 03/01 Q1027 WHT
  • 020155Z AUTO 06007KT 360V130 6000 BR OVC064 03/01 Q1027 WHT
  • 020139Z AUTO 06007KT 360V100 5000 BR OVC064 03/01 Q1027 WHT
  • 020125Z AUTO 06006KT 340V150 5000 BR OVC066 03/02 Q1027 WHT
  • 020055Z AUTO 05005KT 010V090 4500 BR SCT009 OVC011 03/02 Q1027 GRN
  • 020044Z AUTO 06005KT 350V130 4400 BR FEW011 BKN060 OVC066 03/02 Q1027 GRN

TAF TAF EHLW
Valido dal 02 a 02 ore il 02 a 14 ore UTC


020131Z 0202/0214 07006KT 6000 NSC
PROB40
TEMPO 0202/0214 FEW010 SCT012 BKN015
BECMG 0208/0210 08010KT



MetMap, La meteo Aeronautica in un colpo d'occhio ! - Copyright ORBIFLY Dicembre 2007 - Disclaimer

ORBIFLY MET'MAP TEAM :

Programmazione e sviluppo : Alexandra Zaïnal
Concezione : Baudouin d'Aumeries
Supporto tecnico e logistico : Manuel Goepfert
Aiuto : Marc-Olivier Méhu
Aiuto per la traduzione : Arnaldo La Scala




FONTI E CREDITI :

   NOAA